Success, Missouri
Current Conditions -  °F | °C
As of 8:58 PM on Wednesday 26 Nov 2014 (Local Time) from KTBN Reporting Station
Overcast Overcast  
Wind Chill: 24°   Ceiling: 1700
Heat Index: 35°   Visibility: 10mi
Dew Point: 30°   Wind: 17mph
Humidity: 84%   Direction: 310°NW
Pressure: 30.16"   Gusts: 29mph
Location:  37.44°N, 92.09°W
Report Text: KTBN 270258Z AUTO 31015G25KT 270V330 10SM OVC017 02/M01 A3016 RMK AO2 PK WND 29027/39 SLP226 60001 T00151009 52035
Loading
Personal Weather Stations






























Interactive Weather Map New forecast layout! Learn more

10-Day Weather Forecast

Advertisements
Track Severe Weather on mobile